Time;durP1;ratioP1;P1;durP2;ratioP2;P2;SDS_P1;SDS_P2;PMS_P1;PMS_P2;Temp;Humidity;BMP_temperature;BMP_pressure;BME280_temperature;BME280_humidity;BME280_pressure;Samples;Min_cycle;Max_cycle;Signal;HPM_P1;HPM_P2
2021/08/03 00:00:34;;;;;;;;;;;24.30;44.80;;;;;;1528080;76;725;-75
2021/08/03 00:02:38;;;;;;;;;;;24.30;44.80;;;;;;1531481;76;770;-71
2021/08/03 00:04:43;;;;;;;;;;;24.30;44.70;;;;;;1517190;76;756;-72
2021/08/03 00:06:49;;;;;;;;;;;24.30;44.80;;;;;;1516058;76;730;-70
2021/08/03 00:08:56;;;;;;;;;;;24.30;44.70;;;;;;1531920;76;1980;-71
2021/08/03 00:10:58;;;;;;;;;;;24.30;44.70;;;;;;1529795;76;719;-74
2021/08/03 00:13:01;;;;;;;;;;;24.30;44.70;;;;;;1522246;76;774;-72
2021/08/03 00:15:02;;;;;;;;;;;24.30;44.60;;;;;;1528683;76;812;-72
2021/08/03 00:17:05;;;;;;;;;;;24.30;44.60;;;;;;1528829;76;708;-71
2021/08/03 00:19:07;;;;;;;;;;;24.30;44.60;;;;;;1516020;77;1137;-70
2021/08/03 00:21:11;;;;;;;;;;;24.30;44.70;;;;;;1521525;76;964;-73
2021/08/03 00:23:13;;;;;;;;;;;24.30;44.60;;;;;;1524459;76;957;-71
2021/08/03 00:25:15;;;;;;;;;;;24.30;44.60;;;;;;1509562;77;766;-75
2021/08/03 00:27:17;;;;;;;;;;;24.30;44.50;;;;;;1530862;76;731;-71
2021/08/03 00:29:19;;;;;;;;;;;24.30;44.40;;;;;;1544279;76;1950;-69
2021/08/03 00:31:21;;;;;;;;;;;24.30;44.40;;;;;;1520902;76;775;-70
2021/08/03 00:33:23;;;;;;;;;;;24.30;44.40;;;;;;1519716;76;709;-71
2021/08/03 00:35:25;;;;;;;;;;;24.30;44.40;;;;;;1520962;76;785;-70
2021/08/03 00:37:27;;;;;;;;;;;24.30;44.40;;;;;;1511018;76;784;-67
2021/08/03 00:39:29;;;;;;;;;;;24.30;44.30;;;;;;1525663;76;1079;-73
2021/08/03 00:41:31;;;;;;;;;;;24.30;44.30;;;;;;1530807;76;742;-70
2021/08/03 00:43:33;;;;;;;;;;;24.30;44.30;;;;;;1529460;76;711;-70
2021/08/03 00:45:35;;;;;;;;;;;24.20;44.20;;;;;;1533052;77;768;-70
2021/08/03 00:47:37;;;;;;;;;;;24.30;44.30;;;;;;1539208;76;1137;-70
2021/08/03 00:49:39;;;;;;;;;;;24.30;44.20;;;;;;1527576;76;1934;-72
2021/08/03 00:51:41;;;;;;;;;;;24.20;44.20;;;;;;1530701;76;850;-75
2021/08/03 00:53:43;;;;;;;;;;;24.30;44.40;;;;;;1520746;77;798;-70
2021/08/03 00:55:45;;;;;;;;;;;24.30;44.40;;;;;;1529148;76;711;-71
2021/08/03 00:57:47;;;;;;;;;;;24.30;44.20;;;;;;1530777;76;1151;-76
2021/08/03 00:59:49;;;;;;;;;;;24.20;44.00;;;;;;1534741;76;783;-70
2021/08/03 01:01:51;;;;;;;;;;;24.20;43.90;;;;;;1529968;76;760;-71
2021/08/03 01:03:53;;;;;;;;;;;24.30;44.10;;;;;;1522297;76;784;-68
2021/08/03 01:06:02;;;;;;;;;;;24.30;44.00;;;;;;1528855;76;726;-68
2021/08/03 01:08:06;;;;;;;;;;;24.30;43.90;;;;;;1526954;77;1920;-73
2021/08/03 01:10:26;;;;;;;;;;;24.30;43.90;;;;;;1530164;76;787;-70
2021/08/03 01:12:29;;;;;;;;;;;24.20;43.80;;;;;;1527971;77;749;-69
2021/08/03 01:14:36;;;;;;;;;;;24.20;43.80;;;;;;1524701;76;695;-73
2021/08/03 01:16:56;;;;;;;;;;;24.20;43.80;;;;;;1529390;76;2062;-69
2021/08/03 01:19:03;;;;;;;;;;;24.20;43.80;;;;;;1536846;76;1146;-69
2021/08/03 01:21:18;;;;;;;;;;;24.20;43.90;;;;;;1529786;76;1263;-73
2021/08/03 01:23:28;;;;;;;;;;;24.10;43.90;;;;;;1534178;76;2002;-69
2021/08/03 01:25:31;;;;;;;;;;;24.20;43.90;;;;;;1528299;76;832;-69
2021/08/03 01:27:51;;;;;;;;;;;24.20;43.80;;;;;;1507809;76;1007;-71
2021/08/03 01:29:53;;;;;;;;;;;24.20;43.90;;;;;;1534712;76;1912;-72
2021/08/03 01:31:56;;;;;;;;;;;24.20;43.90;;;;;;1530796;77;714;-69
2021/08/03 01:34:05;;;;;;;;;;;24.20;43.80;;;;;;1533656;76;737;-73
2021/08/03 01:36:06;;;;;;;;;;;24.20;43.70;;;;;;1532260;76;792;-70
2021/08/03 01:38:08;;;;;;;;;;;24.30;44.00;;;;;;1528766;76;1114;-75
2021/08/03 01:40:12;;;;;;;;;;;24.20;43.80;;;;;;1528970;76;712;-70
2021/08/03 01:42:14;;;;;;;;;;;24.30;43.90;;;;;;1531097;77;760;-72
2021/08/03 01:44:16;;;;;;;;;;;24.20;43.80;;;;;;1529322;77;718;-71
2021/08/03 01:46:17;;;;;;;;;;;24.20;43.70;;;;;;1527071;76;677;-70
2021/08/03 01:48:19;;;;;;;;;;;24.20;43.60;;;;;;1529089;76;1942;-72
2021/08/03 01:50:21;;;;;;;;;;;24.20;43.60;;;;;;1529266;76;708;-69
2021/08/03 01:52:23;;;;;;;;;;;24.20;43.60;;;;;;1533528;76;801;-69
2021/08/03 01:54:25;;;;;;;;;;;24.10;43.60;;;;;;1530982;76;765;-69
2021/08/03 01:56:27;;;;;;;;;;;24.20;43.60;;;;;;1534573;76;810;-72
2021/08/03 01:58:29;;;;;;;;;;;24.20;43.60;;;;;;1526865;77;1131;-69
2021/08/03 02:00:31;;;;;;;;;;;24.20;43.60;;;;;;1531067;76;718;-69
2021/08/03 02:02:32;;;;;;;;;;;24.10;43.60;;;;;;1533043;77;784;-71
2021/08/03 02:04:34;;;;;;;;;;;24.10;43.70;;;;;;1532523;76;816;-69
2021/08/03 02:06:37;;;;;;;;;;;24.20;43.70;;;;;;1535817;76;815;-71
2021/08/03 02:08:39;;;;;;;;;;;24.20;43.60;;;;;;1533582;76;1940;-77
2021/08/03 02:10:41;;;;;;;;;;;24.20;43.60;;;;;;1522776;77;793;-71
2021/08/03 02:12:43;;;;;;;;;;;24.10;43.60;;;;;;1522176;76;753;-72
2021/08/03 02:14:45;;;;;;;;;;;24.10;43.60;;;;;;1532106;76;802;-72
2021/08/03 02:16:47;;;;;;;;;;;24.10;43.60;;;;;;1533460;76;654;-72
2021/08/03 02:18:49;;;;;;;;;;;24.10;43.60;;;;;;1530116;76;1133;-71
2021/08/03 02:20:53;;;;;;;;;;;24.20;43.90;;;;;;1533728;76;755;-72
2021/08/03 02:22:54;;;;;;;;;;;24.20;44.10;;;;;;1529749;76;1561;-72
2021/08/03 02:24:56;;;;;;;;;;;24.20;44.20;;;;;;1532724;76;812;-72
2021/08/03 02:26:58;;;;;;;;;;;24.20;44.20;;;;;;1530428;76;758;-72
2021/08/03 02:29:00;;;;;;;;;;;24.10;44.20;;;;;;1530267;76;1937;-70
2021/08/03 02:31:03;;;;;;;;;;;24.20;44.30;;;;;;1536324;76;871;-72
2021/08/03 02:33:24;;;;;;;;;;;24.20;44.30;;;;;;1532609;76;764;-73
2021/08/03 02:35:27;;;;;;;;;;;24.20;44.40;;;;;;1530803;76;768;-72
2021/08/03 02:37:36;;;;;;;;;;;24.20;44.60;;;;;;1528975;76;1106;-73
2021/08/03 02:39:37;;;;;;;;;;;24.20;44.60;;;;;;1527269;76;827;-74
2021/08/03 02:41:39;;;;;;;;;;;24.20;44.70;;;;;;1527807;76;846;-74
2021/08/03 02:43:41;;;;;;;;;;;24.20;44.90;;;;;;1531502;76;629;-73
2021/08/03 02:45:43;;;;;;;;;;;24.20;45.00;;;;;;1529283;76;739;-75
2021/08/03 02:47:54;;;;;;;;;;;24.30;45.20;;;;;;1530639;76;1072;-74
2021/08/03 02:49:52;;;;;;;;;;;24.20;45.20;;;;;;1527081;76;1920;-76
2021/08/03 02:51:54;;;;;;;;;;;24.20;45.20;;;;;;1532432;76;786;-74
2021/08/03 02:53:56;;;;;;;;;;;24.20;45.20;;;;;;1530032;76;699;-76
2021/08/03 02:55:59;;;;;;;;;;;24.20;45.30;;;;;;1531364;76;754;-73
2021/08/03 02:58:05;;;;;;;;;;;24.20;45.20;;;;;;1533768;76;1139;-74
2021/08/03 03:00:07;;;;;;;;;;;24.20;45.40;;;;;;1531888;76;1788;-74
2021/08/03 03:02:09;;;;;;;;;;;24.20;45.40;;;;;;1528834;76;683;-75
2021/08/03 03:04:22;;;;;;;;;;;24.20;45.50;;;;;;1531464;76;812;-73
2021/08/03 03:06:24;;;;;;;;;;;24.20;45.50;;;;;;1532722;76;713;-74
2021/08/03 03:08:26;;;;;;;;;;;24.20;45.60;;;;;;1547796;75;1166;-74
2021/08/03 03:10:29;;;;;;;;;;;24.20;45.60;;;;;;1508185;77;1937;-73
2021/08/03 03:12:32;;;;;;;;;;;24.20;45.70;;;;;;1506282;77;737;-73
2021/08/03 03:14:35;;;;;;;;;;;24.20;45.70;;;;;;1501824;77;754;-74
2021/08/03 03:16:38;;;;;;;;;;;24.20;45.80;;;;;;1542052;75;727;-74
2021/08/03 03:18:40;;;;;;;;;;;24.20;45.80;;;;;;1532979;76;1090;-74
2021/08/03 03:20:42;;;;;;;;;;;24.20;45.80;;;;;;1521528;76;870;-73
2021/08/03 03:22:44;;;;;;;;;;;24.20;45.90;;;;;;1530798;76;814;-73
2021/08/03 03:24:45;;;;;;;;;;;24.20;46.00;;;;;;1528585;76;727;-73
2021/08/03 03:26:48;;;;;;;;;;;24.30;46.00;;;;;;1520888;76;771;-73
2021/08/03 03:28:50;;;;;;;;;;;24.20;46.00;;;;;;1547114;76;1940;-74
2021/08/03 03:30:52;;;;;;;;;;;24.20;46.00;;;;;;1521511;76;716;-73
2021/08/03 03:32:54;;;;;;;;;;;24.30;46.20;;;;;;1524457;76;728;-72
2021/08/03 03:34:56;;;;;;;;;;;24.30;46.30;;;;;;1528882;76;697;-73
2021/08/03 03:36:58;;;;;;;;;;;24.30;46.20;;;;;;1524534;77;718;-74
2021/08/03 03:38:59;;;;;;;;;;;24.30;46.30;;;;;;1511307;76;1167;-74
2021/08/03 03:41:01;;;;;;;;;;;24.30;46.30;;;;;;1520955;76;751;-74
2021/08/03 03:43:03;;;;;;;;;;;24.30;46.30;;;;;;1531801;76;754;-75
2021/08/03 03:45:06;;;;;;;;;;;24.20;46.30;;;;;;1526911;76;727;-75
2021/08/03 03:47:21;;;;;;;;;;;24.20;46.20;;;;;;1517554;76;732;-75
2021/08/03 03:49:24;;;;;;;;;;;24.20;46.30;;;;;;1530427;76;1963;-73
2021/08/03 03:51:26;;;;;;;;;;;24.20;46.30;;;;;;1524618;76;684;-74
2021/08/03 03:53:44;;;;;;;;;;;24.20;46.30;;;;;;1530919;76;809;-74
2021/08/03 03:55:48;;;;;;;;;;;24.20;46.30;;;;;;1526713;76;812;-73
2021/08/03 03:57:49;;;;;;;;;;;24.20;46.40;;;;;;1515739;77;1166;-74
2021/08/03 03:59:51;;;;;;;;;;;24.20;46.40;;;;;;1526349;76;819;-73
2021/08/03 04:01:55;;;;;;;;;;;24.30;46.60;;;;;;1524214;76;698;-73
2021/08/03 04:03:59;;;;;;;;;;;24.20;46.50;;;;;;1517627;76;665;-74
2021/08/03 04:06:00;;;;;;;;;;;24.20;46.60;;;;;;1527859;76;715;-76
2021/08/03 04:08:02;;;;;;;;;;;24.20;46.60;;;;;;1526157;76;1180;-74
2021/08/03 04:10:05;;;;;;;;;;;24.20;46.60;;;;;;1521546;76;1941;-73
2021/08/03 04:12:07;;;;;;;;;;;24.30;46.70;;;;;;1520842;76;780;-73
2021/08/03 04:14:09;;;;;;;;;;;24.30;46.70;;;;;;1522370;76;715;-73
2021/08/03 04:16:11;;;;;;;;;;;24.30;46.80;;;;;;1532115;76;716;-74
2021/08/03 04:18:13;;;;;;;;;;;24.20;46.70;;;;;;1526789;76;1149;-73
2021/08/03 04:20:15;;;;;;;;;;;24.20;46.70;;;;;;1527690;76;722;-74
2021/08/03 04:22:17;;;;;;;;;;;24.30;46.80;;;;;;1518936;76;778;-73
2021/08/03 04:24:18;;;;;;;;;;;24.40;46.80;;;;;;1518758;76;736;-74
2021/08/03 04:26:20;;;;;;;;;;;24.30;46.80;;;;;;1533989;76;674;-75
2021/08/03 04:28:22;;;;;;;;;;;24.30;46.80;;;;;;1520994;76;1141;-74
2021/08/03 04:30:24;;;;;;;;;;;24.30;46.70;;;;;;1532144;76;1948;-74
2021/08/03 04:32:26;;;;;;;;;;;24.30;46.80;;;;;;1520107;76;790;-74
2021/08/03 04:34:28;;;;;;;;;;;24.30;46.80;;;;;;1516123;76;748;-73
2021/08/03 04:36:30;;;;;;;;;;;24.30;46.80;;;;;;1532744;76;718;-73
2021/08/03 04:38:32;;;;;;;;;;;24.30;46.80;;;;;;1522352;76;1144;-74
2021/08/03 04:40:33;;;;;;;;;;;24.30;46.80;;;;;;1521702;76;763;-74
2021/08/03 04:42:35;;;;;;;;;;;24.30;46.80;;;;;;1515141;76;760;-74
2021/08/03 04:44:37;;;;;;;;;;;24.30;46.80;;;;;;1521547;76;698;-75
2021/08/03 04:46:41;;;;;;;;;;;24.40;46.80;;;;;;1516110;76;654;-74
2021/08/03 04:48:43;;;;;;;;;;;24.30;46.90;;;;;;1521006;76;1135;-74
2021/08/03 04:50:44;;;;;;;;;;;24.40;46.90;;;;;;1526148;76;1940;-74
2021/08/03 04:52:46;;;;;;;;;;;24.40;47.00;;;;;;1528382;76;811;-75
2021/08/03 04:54:48;;;;;;;;;;;24.40;46.90;;;;;;1516793;76;888;-75
2021/08/03 04:56:50;;;;;;;;;;;24.30;47.00;;;;;;1516803;76;833;-74
2021/08/03 04:58:52;;;;;;;;;;;24.30;47.00;;;;;;1537054;76;1123;-76
2021/08/03 05:00:54;;;;;;;;;;;24.30;47.10;;;;;;1531864;76;694;-75
2021/08/03 05:02:56;;;;;;;;;;;24.30;47.10;;;;;;1521114;76;693;-74
2021/08/03 05:04:58;;;;;;;;;;;24.30;47.10;;;;;;1542592;76;817;-75
2021/08/03 05:07:04;;;;;;;;;;;24.30;47.10;;;;;;1530414;76;721;-77
2021/08/03 05:09:06;;;;;;;;;;;24.30;47.00;;;;;;1531859;76;1170;-74
2021/08/03 05:11:08;;;;;;;;;;;24.30;47.10;;;;;;1522608;76;1977;-74
2021/08/03 05:13:10;;;;;;;;;;;24.30;47.10;;;;;;1521003;76;700;-75
2021/08/03 05:15:11;;;;;;;;;;;24.30;47.10;;;;;;1528446;76;745;-75
2021/08/03 05:17:13;;;;;;;;;;;24.30;47.10;;;;;;1519255;76;744;-75
2021/08/03 05:19:15;;;;;;;;;;;24.30;47.10;;;;;;1521623;76;1125;-76
2021/08/03 05:21:17;;;;;;;;;;;24.30;47.30;;;;;;1529926;77;767;-75
2021/08/03 05:23:19;;;;;;;;;;;24.30;47.30;;;;;;1519224;76;773;-72
2021/08/03 05:25:21;;;;;;;;;;;24.30;47.50;;;;;;1516786;76;756;-70
2021/08/03 05:27:23;;;;;;;;;;;24.40;47.50;;;;;;1523506;76;788;-69
2021/08/03 05:29:25;;;;;;;;;;;24.40;47.10;;;;;;1519328;76;1953;-69
2021/08/03 05:31:27;;;;;;;;;;;24.40;46.30;;;;;;1528003;76;711;-66
2021/08/03 05:33:29;;;;;;;;;;;24.40;45.50;;;;;;1526871;76;772;-69
2021/08/03 05:35:31;;;;;;;;;;;24.40;45.30;;;;;;1520778;76;779;-70
2021/08/03 05:37:32;;;;;;;;;;;24.40;45.10;;;;;;1530075;76;811;-71
2021/08/03 05:39:34;;;;;;;;;;;24.30;45.00;;;;;;1522609;76;1242;-68
2021/08/03 05:41:36;;;;;;;;;;;24.30;44.80;;;;;;1534453;76;798;-68
2021/08/03 05:43:38;;;;;;;;;;;24.20;44.70;;;;;;1515443;76;777;-68
2021/08/03 05:45:40;;;;;;;;;;;24.20;44.70;;;;;;1535386;76;744;-69
2021/08/03 05:47:42;;;;;;;;;;;24.20;44.70;;;;;;1499677;77;1180;-69
2021/08/03 05:49:44;;;;;;;;;;;24.20;44.60;;;;;;1529629;76;1945;-72
2021/08/03 05:51:46;;;;;;;;;;;24.20;44.60;;;;;;1533724;76;767;-73
2021/08/03 05:53:47;;;;;;;;;;;24.20;44.70;;;;;;1527774;76;767;-71
2021/08/03 05:55:49;;;;;;;;;;;24.20;44.70;;;;;;1534921;76;693;-68
2021/08/03 05:57:51;;;;;;;;;;;24.10;44.70;;;;;;1523609;76;1203;-68
2021/08/03 05:59:53;;;;;;;;;;;24.20;44.90;;;;;;1530707;76;932;-69
2021/08/03 06:01:55;;;;;;;;;;;24.20;45.00;;;;;;1536345;76;762;-68
2021/08/03 06:03:57;;;;;;;;;;;24.20;45.10;;;;;;1518026;76;608;-69
2021/08/03 06:05:59;;;;;;;;;;;24.30;45.30;;;;;;1526499;76;704;-70
2021/08/03 06:08:00;;;;;;;;;;;24.30;45.10;;;;;;1524001;76;1086;-72
2021/08/03 06:10:02;;;;;;;;;;;24.30;44.90;;;;;;1528410;76;1938;-69
2021/08/03 06:12:04;;;;;;;;;;;24.30;45.00;;;;;;1520396;76;755;-69
2021/08/03 06:14:08;;;;;;;;;;;24.20;44.90;;;;;;1522686;76;863;-72
2021/08/03 06:16:10;;;;;;;;;;;24.20;44.90;;;;;;1528980;77;798;-69
2021/08/03 06:18:13;;;;;;;;;;;24.20;44.90;;;;;;1534547;76;1217;-70
2021/08/03 06:20:15;;;;;;;;;;;24.20;44.90;;;;;;1522695;76;685;-70
2021/08/03 06:22:17;;;;;;;;;;;24.20;44.90;;;;;;1531233;76;777;-70
2021/08/03 06:24:19;;;;;;;;;;;24.10;45.00;;;;;;1521290;76;745;-72
2021/08/03 06:26:21;;;;;;;;;;;24.20;44.90;;;;;;1532971;76;733;-71
2021/08/03 06:28:23;;;;;;;;;;;24.20;45.00;;;;;;1521094;76;1167;-70
2021/08/03 06:30:25;;;;;;;;;;;24.20;44.90;;;;;;1530358;76;1924;-70
2021/08/03 06:32:27;;;;;;;;;;;24.10;44.90;;;;;;1528847;76;779;-68
2021/08/03 06:34:28;;;;;;;;;;;24.20;44.90;;;;;;1533056;76;732;-72
2021/08/03 06:36:30;;;;;;;;;;;24.10;45.00;;;;;;1527203;76;759;-74
2021/08/03 06:38:32;;;;;;;;;;;24.10;45.00;;;;;;1529330;76;1138;-69
2021/08/03 06:40:34;;;;;;;;;;;24.20;44.90;;;;;;1544851;76;815;-70
2021/08/03 06:42:37;;;;;;;;;;;24.10;45.00;;;;;;1516294;76;781;-71
2021/08/03 06:44:44;;;;;;;;;;;24.10;45.00;;;;;;1521110;76;778;-69
2021/08/03 06:46:46;;;;;;;;;;;24.20;45.00;;;;;;1523702;76;908;-69
2021/08/03 06:48:56;;;;;;;;;;;24.10;45.10;;;;;;1529380;76;1156;-69
2021/08/03 06:51:11;;;;;;;;;;;24.10;45.10;;;;;;1523706;77;1918;-69
2021/08/03 06:53:12;;;;;;;;;;;24.10;45.10;;;;;;1534076;76;804;-70
2021/08/03 06:55:14;;;;;;;;;;;24.10;45.20;;;;;;1523369;76;753;-69
2021/08/03 06:57:16;;;;;;;;;;;24.10;45.20;;;;;;1530547;76;740;-69
2021/08/03 06:59:19;;;;;;;;;;;24.10;45.20;;;;;;1534694;76;1170;-69
2021/08/03 07:01:25;;;;;;;;;;;24.10;45.20;;;;;;1534655;76;802;-69
2021/08/03 07:03:27;;;;;;;;;;;24.00;45.20;;;;;;1524537;76;1822;-69
2021/08/03 07:05:29;;;;;;;;;;;24.00;45.20;;;;;;1529578;76;763;-69
2021/08/03 07:07:31;;;;;;;;;;;24.20;45.40;;;;;;1532815;76;787;-67
2021/08/03 07:09:33;;;;;;;;;;;24.10;45.40;;;;;;1531065;76;1131;-69
2021/08/03 07:11:35;;;;;;;;;;;24.00;45.30;;;;;;1534398;77;1956;-70
2021/08/03 07:13:38;;;;;;;;;;;24.00;45.30;;;;;;1527388;76;910;-72
2021/08/03 07:15:40;;;;;;;;;;;24.10;45.50;;;;;;1525521;76;1115;-69
2021/08/03 07:17:42;;;;;;;;;;;24.00;45.30;;;;;;1529199;76;1194;-70
2021/08/03 07:19:44;;;;;;;;;;;24.10;45.50;;;;;;1530424;76;778;-69
2021/08/03 07:21:45;;;;;;;;;;;24.10;45.50;;;;;;1531806;76;923;-68
2021/08/03 07:23:47;;;;;;;;;;;24.10;45.50;;;;;;1531513;76;904;-71
2021/08/03 07:25:50;;;;;;;;;;;24.10;45.50;;;;;;1528241;76;844;-72
2021/08/03 07:27:52;;;;;;;;;;;24.10;45.50;;;;;;1530952;76;1146;-70
2021/08/03 07:29:54;;;;;;;;;;;24.10;45.50;;;;;;1533963;76;795;-69
2021/08/03 07:31:56;;;;;;;;;;;24.10;45.50;;;;;;1520386;76;1940;-72
2021/08/03 07:33:58;;;;;;;;;;;24.10;45.50;;;;;;1529579;76;726;-69
2021/08/03 07:35:59;;;;;;;;;;;24.10;45.60;;;;;;1527551;76;792;-69
2021/08/03 07:38:01;;;;;;;;;;;24.10;45.60;;;;;;1524993;76;1160;-68
2021/08/03 07:40:04;;;;;;;;;;;24.10;45.50;;;;;;1534868;76;719;-69
2021/08/03 07:42:06;;;;;;;;;;;24.10;45.60;;;;;;1518086;76;688;-71
2021/08/03 07:44:08;;;;;;;;;;;24.00;45.50;;;;;;1533590;76;725;-69
2021/08/03 07:46:10;;;;;;;;;;;24.20;45.60;;;;;;1530598;76;713;-71
2021/08/03 07:48:31;;;;;;;;;;;24.10;45.60;;;;;;1530554;76;1099;-74
2021/08/03 07:50:33;;;;;;;;;;;24.20;45.50;;;;;;1540473;76;1942;-71
2021/08/03 07:52:36;;;;;;;;;;;24.10;45.50;;;;;;1542639;76;781;-72
2021/08/03 07:54:37;;;;;;;;;;;24.20;45.50;;;;;;1543756;76;752;-72
2021/08/03 07:56:39;;;;;;;;;;;24.10;45.20;;;;;;1539150;76;721;-71
2021/08/03 07:58:41;;;;;;;;;;;24.20;44.70;;;;;;1543728;76;1138;-72
2021/08/03 08:00:43;;;;;;;;;;;24.20;44.70;;;;;;1542216;76;733;-72
2021/08/03 08:02:45;;;;;;;;;;;24.20;44.50;;;;;;1545590;76;714;-69
2021/08/03 08:04:47;;;;;;;;;;;24.20;44.40;;;;;;1550601;76;774;-70
2021/08/03 08:06:49;;;;;;;;;;;24.20;44.70;;;;;;1549843;76;785;-67
2021/08/03 08:08:50;;;;;;;;;;;24.20;44.60;;;;;;1548024;76;1130;-70
2021/08/03 08:10:52;;;;;;;;;;;24.30;44.80;;;;;;1535666;76;1936;-70
2021/08/03 08:12:54;;;;;;;;;;;24.30;44.80;;;;;;1539938;76;801;-70
2021/08/03 08:14:56;;;;;;;;;;;24.30;44.80;;;;;;1543341;76;739;-71
2021/08/03 08:17:00;;;;;;;;;;;24.30;44.80;;;;;;1532527;76;739;-70
2021/08/03 08:19:01;;;;;;;;;;;24.30;44.40;;;;;;1577677;74;1651;-70
2021/08/03 08:21:03;;;;;;;;;;;24.30;44.40;;;;;;1584059;74;757;-69
2021/08/03 08:23:05;;;;;;;;;;;24.40;44.50;;;;;;1562688;75;677;-70
2021/08/03 08:25:10;;;;;;;;;;;24.40;44.40;;;;;;1553641;75;957;-70
2021/08/03 08:27:11;;;;;;;;;;;24.50;44.50;;;;;;1569457;75;2060;-71
2021/08/03 08:29:16;;;;;;;;;;;24.50;44.40;;;;;;1561912;75;1186;-71
2021/08/03 08:31:17;;;;;;;;;;;24.50;44.40;;;;;;1540732;75;1928;-70
2021/08/03 08:33:19;;;;;;;;;;;24.50;43.20;;;;;;1540464;75;725;-70
2021/08/03 08:35:20;;;;;;;;;;;24.50;44.10;;;;;;1535409;75;716;-70
2021/08/03 08:37:22;;;;;;;;;;;24.50;44.10;;;;;;1539405;75;723;-70
2021/08/03 08:39:24;;;;;;;;;;;24.50;44.10;;;;;;1538979;75;1139;-70
2021/08/03 08:41:26;;;;;;;;;;;24.50;43.70;;;;;;1539918;75;755;-70
2021/08/03 08:43:28;;;;;;;;;;;24.60;43.70;;;;;;1548572;75;780;-70
2021/08/03 08:45:30;;;;;;;;;;;24.50;43.70;;;;;;1567165;75;733;-71
2021/08/03 08:47:32;;;;;;;;;;;24.60;43.60;;;;;;1549229;75;741;-71
2021/08/03 08:49:34;;;;;;;;;;;24.60;43.60;;;;;;1565874;75;1125;-70
2021/08/03 08:51:36;;;;;;;;;;;24.70;43.60;;;;;;1546634;75;1935;-68
2021/08/03 08:53:38;;;;;;;;;;;24.60;43.40;;;;;;1549713;75;776;-71
2021/08/03 08:55:41;;;;;;;;;;;24.70;43.60;;;;;;1545120;75;795;-70
2021/08/03 08:57:45;;;;;;;;;;;24.80;43.50;;;;;;1536503;75;747;-70
2021/08/03 08:59:47;;;;;;;;;;;24.70;43.30;;;;;;1537610;75;1102;-70
2021/08/03 09:01:48;;;;;;;;;;;24.70;43.30;;;;;;1546444;75;734;-69
2021/08/03 09:03:50;;;;;;;;;;;24.80;43.30;;;;;;1541798;75;716;-70
2021/08/03 09:05:59;;;;;;;;;;;24.70;43.40;;;;;;1538836;76;740;-71
2021/08/03 09:08:01;;;;;;;;;;;24.70;43.40;;;;;;1548894;76;753;-70
2021/08/03 09:10:03;;;;;;;;;;;24.60;43.30;;;;;;1536578;75;1188;-70
2021/08/03 09:12:05;;;;;;;;;;;24.60;43.60;;;;;;1533268;76;1940;-70
2021/08/03 09:14:07;;;;;;;;;;;24.60;43.50;;;;;;1560477;74;785;-71
2021/08/03 09:16:09;;;;;;;;;;;24.70;43.60;;;;;;1585759;75;713;-67
2021/08/03 09:18:13;;;;;;;;;;;24.70;43.60;;;;;;1545640;75;1202;-70
2021/08/03 09:20:16;;;;;;;;;;;24.70;43.80;;;;;;1563195;75;795;-67
2021/08/03 09:22:23;;;;;;;;;;;24.70;43.90;;;;;;1559467;75;707;-70
2021/08/03 09:24:25;;;;;;;;;;;24.70;43.70;;;;;;1552763;75;779;-70
2021/08/03 09:26:40;;;;;;;;;;;24.60;43.60;;;;;;1557337;75;786;-71
2021/08/03 09:28:57;;;;;;;;;;;24.70;43.90;;;;;;1551633;75;1124;-71
2021/08/03 09:30:59;;;;;;;;;;;24.60;43.80;;;;;;1558732;75;1918;-71
2021/08/03 09:33:01;;;;;;;;;;;24.60;43.90;;;;;;1545654;75;788;-71
2021/08/03 09:35:11;;;;;;;;;;;24.60;43.80;;;;;;1553330;75;722;-71
2021/08/03 09:37:13;;;;;;;;;;;24.60;43.90;;;;;;1545919;75;686;-68
2021/08/03 09:39:33;;;;;;;;;;;24.60;43.90;;;;;;1550057;75;1114;-69
2021/08/03 09:41:37;;;;;;;;;;;24.50;44.00;;;;;;1552736;75;718;-71
2021/08/03 09:43:39;;;;;;;;;;;24.60;44.00;;;;;;1548603;75;1437;-71
2021/08/03 09:45:45;;;;;;;;;;;24.50;44.20;;;;;;1550801;75;756;-71
2021/08/03 09:47:47;;;;;;;;;;;24.50;44.20;;;;;;1544288;75;635;-71
2021/08/03 09:49:50;;;;;;;;;;;24.60;44.20;;;;;;1558871;75;1127;-71
2021/08/03 09:51:53;;;;;;;;;;;24.50;44.30;;;;;;1554656;75;1938;-70
2021/08/03 09:53:55;;;;;;;;;;;24.50;44.30;;;;;;1546717;75;1837;-70
2021/08/03 09:55:57;;;;;;;;;;;24.50;44.20;;;;;;1538216;75;750;-71
2021/08/03 09:58:05;;;;;;;;;;;24.50;44.20;;;;;;1542708;75;740;-71
2021/08/03 10:00:27;;;;;;;;;;;24.50;44.30;;;;;;1543405;76;715;-71
2021/08/03 10:02:29;;;;;;;;;;;24.50;44.30;;;;;;1536893;75;740;-70
2021/08/03 10:04:34;;;;;;;;;;;24.50;44.30;;;;;;1541680;76;807;-71
2021/08/03 10:06:36;;;;;;;;;;;24.50;44.30;;;;;;1560334;76;935;-71
2021/08/03 10:08:38;;;;;;;;;;;24.40;44.30;;;;;;1560820;74;1132;-71
2021/08/03 10:10:40;;;;;;;;;;;24.50;44.30;;;;;;1556690;76;727;-70
2021/08/03 10:12:42;;;;;;;;;;;24.40;44.20;;;;;;1562069;76;1944;-71
2021/08/03 10:14:44;;;;;;;;;;;24.50;44.30;;;;;;1557773;76;745;-71
2021/08/03 10:16:47;;;;;;;;;;;24.40;44.30;;;;;;1563861;76;825;-70
2021/08/03 10:18:49;;;;;;;;;;;24.50;44.20;;;;;;1563100;76;1146;-70
2021/08/03 10:20:51;;;;;;;;;;;24.40;44.20;;;;;;1561978;76;795;-70
2021/08/03 10:22:55;;;;;;;;;;;24.40;44.10;;;;;;1560293;76;773;-70
2021/08/03 10:25:01;;;;;;;;;;;24.40;44.00;;;;;;1563790;76;666;-70
2021/08/03 10:27:10;;;;;;;;;;;24.40;44.10;;;;;;1555132;76;784;-70
2021/08/03 10:29:19;;;;;;;;;;;24.40;44.20;;;;;;1576363;74;1157;-70
2021/08/03 10:31:37;;;;;;;;;;;24.40;44.20;;;;;;1540954;75;1935;-71
2021/08/03 10:33:49;;;;;;;;;;;24.30;44.20;;;;;;1568612;75;719;-70
2021/08/03 10:35:49;;;;;;;;;;;24.50;44.40;;;;;;1562646;74;1256;-70
2021/08/03 10:37:59;;;;;;;;;;;24.40;44.20;;;;;;1569054;75;730;-70
2021/08/03 10:40:00;;;;;;;;;;;24.50;44.30;;;;;;1562214;74;1074;-71
2021/08/03 10:42:07;;;;;;;;;;;24.50;43.90;;;;;;1569965;74;807;-70
2021/08/03 10:44:09;;;;;;;;;;;24.40;43.70;;;;;;1575444;75;714;-71
2021/08/03 10:46:12;;;;;;;;;;;24.40;44.10;;;;;;1531061;76;1162;-70
2021/08/03 10:48:32;;;;;;;;;;;24.40;44.20;;;;;;1572045;74;1173;-68
2021/08/03 10:50:34;;;;;;;;;;;24.40;44.20;;;;;;1535502;76;838;-71
2021/08/03 10:52:48;;;;;;;;;;;24.40;44.20;;;;;;1546035;76;1953;-70
2021/08/03 10:54:53;;;;;;;;;;;24.40;44.20;;;;;;1537309;76;710;-70
2021/08/03 10:56:57;;;;;;;;;;;24.40;44.10;;;;;;1534381;76;657;-70
2021/08/03 10:59:17;;;;;;;;;;;24.40;44.00;;;;;;1567034;74;1204;-71
2021/08/03 11:01:29;;;;;;;;;;;24.50;43.70;;;;;;1563541;75;812;-70
2021/08/03 11:03:35;;;;;;;;;;;24.50;43.90;;;;;;1558171;74;1713;-70
2021/08/03 11:05:37;;;;;;;;;;;24.40;43.80;;;;;;1572595;74;683;-71
2021/08/03 11:07:39;;;;;;;;;;;24.40;43.70;;;;;;1561553;75;787;-69
2021/08/03 11:09:41;;;;;;;;;;;24.40;43.60;;;;;;1558508;75;1125;-71
2021/08/03 11:11:43;;;;;;;;;;;24.40;43.60;;;;;;1558150;75;1932;-70
2021/08/03 11:13:45;;;;;;;;;;;24.40;43.60;;;;;;1566242;75;783;-70
2021/08/03 11:15:47;;;;;;;;;;;24.40;43.50;;;;;;1556110;75;790;-70
2021/08/03 11:17:51;;;;;;;;;;;24.40;43.40;;;;;;1546326;76;732;-70
2021/08/03 11:19:53;;;;;;;;;;;24.40;43.50;;;;;;1569036;74;1130;-70
2021/08/03 11:21:55;;;;;;;;;;;24.40;43.40;;;;;;1559547;75;797;-70
2021/08/03 11:23:57;;;;;;;;;;;24.30;43.30;;;;;;1579444;74;686;-70
2021/08/03 11:26:00;;;;;;;;;;;24.40;43.20;;;;;;1566720;74;789;-71
2021/08/03 11:28:09;;;;;;;;;;;24.40;43.10;;;;;;1551505;76;1285;-71
2021/08/03 11:30:11;;;;;;;;;;;24.40;43.10;;;;;;1567154;74;846;-71
2021/08/03 11:32:15;;;;;;;;;;;24.40;42.90;;;;;;1569177;74;1932;-70
2021/08/03 11:34:27;;;;;;;;;;;24.40;42.90;;;;;;1546987;76;907;-70
2021/08/03 11:36:29;;;;;;;;;;;24.40;43.00;;;;;;1533438;76;878;-71
2021/08/03 11:38:31;;;;;;;;;;;24.40;43.00;;;;;;1548978;76;1241;-71
2021/08/03 11:40:33;;;;;;;;;;;24.40;43.00;;;;;;1546459;76;769;-71
2021/08/03 11:42:36;;;;;;;;;;;24.50;43.00;;;;;;1557192;76;743;-71
2021/08/03 11:44:38;;;;;;;;;;;24.50;42.60;;;;;;1547970;75;765;-70
2021/08/03 11:46:40;;;;;;;;;;;24.50;42.70;;;;;;1549885;75;729;-71
2021/08/03 11:48:42;;;;;;;;;;;24.50;42.80;;;;;;1553856;75;1136;-71
2021/08/03 11:50:43;;;;;;;;;;;24.50;42.80;;;;;;1560020;75;792;-72
2021/08/03 11:52:45;;;;;;;;;;;24.50;42.90;;;;;;1558831;75;1943;-70
2021/08/03 11:54:49;;;;;;;;;;;24.50;43.10;;;;;;1545215;75;940;-71
2021/08/03 11:56:51;;;;;;;;;;;24.50;42.90;;;;;;1556451;75;722;-72
2021/08/03 11:58:54;;;;;;;;;;;24.50;42.90;;;;;;1567141;75;1161;-71
2021/08/03 12:00:56;;;;;;;;;;;24.50;42.80;;;;;;1561616;75;1863;-77
2021/08/03 12:02:59;;;;;;;;;;;24.50;42.80;;;;;;1550863;75;734;-70
2021/08/03 12:05:02;;;;;;;;;;;24.50;42.90;;;;;;1539293;75;753;-71
2021/08/03 12:07:04;;;;;;;;;;;24.50;42.80;;;;;;1561853;75;1119;-70
2021/08/03 12:09:06;;;;;;;;;;;24.40;42.10;;;;;;1564905;75;1142;-72
2021/08/03 12:11:08;;;;;;;;;;;24.50;42.50;;;;;;1517579;77;1363;-72
2021/08/03 12:13:11;;;;;;;;;;;24.50;42.40;;;;;;1553207;75;1915;-70
2021/08/03 12:15:14;;;;;;;;;;;24.40;42.30;;;;;;1551710;75;753;-71